sensor_id;sensor_type;location;lat;lon;timestamp;P1;durP1;ratioP1;P2;durP2;ratioP2
4839;SDS011;2434;48.486;7.964;2023-02-28T00:01:25;3.50;;;2.67;;
4839;SDS011;2434;48.486;7.964;2023-02-28T00:03:54;3.53;;;2.73;;
4839;SDS011;2434;48.486;7.964;2023-02-28T00:06:23;8.83;;;5.40;;
4839;SDS011;2434;48.486;7.964;2023-02-28T00:08:53;5.67;;;3.10;;
4839;SDS011;2434;48.486;7.964;2023-02-28T00:11:21;5.30;;;3.17;;
4839;SDS011;2434;48.486;7.964;2023-02-28T00:13:49;6.57;;;3.37;;
4839;SDS011;2434;48.486;7.964;2023-02-28T00:16:19;4.80;;;2.80;;
4839;SDS011;2434;48.486;7.964;2023-02-28T00:18:49;6.23;;;3.40;;
4839;SDS011;2434;48.486;7.964;2023-02-28T00:21:18;4.60;;;3.23;;
4839;SDS011;2434;48.486;7.964;2023-02-28T00:23:47;5.63;;;3.30;;
4839;SDS011;2434;48.486;7.964;2023-02-28T00:26:16;4.20;;;3.40;;
4839;SDS011;2434;48.486;7.964;2023-02-28T00:28:48;4.33;;;3.80;;
4839;SDS011;2434;48.486;7.964;2023-02-28T00:31:16;5.87;;;3.43;;
4839;SDS011;2434;48.486;7.964;2023-02-28T00:33:47;2.97;;;2.67;;
4839;SDS011;2434;48.486;7.964;2023-02-28T00:36:15;6.10;;;3.40;;
4839;SDS011;2434;48.486;7.964;2023-02-28T00:38:43;6.93;;;3.27;;
4839;SDS011;2434;48.486;7.964;2023-02-28T00:41:12;5.13;;;3.13;;
4839;SDS011;2434;48.486;7.964;2023-02-28T00:43:41;5.00;;;3.47;;
4839;SDS011;2434;48.486;7.964;2023-02-28T00:46:10;7.23;;;3.20;;
4839;SDS011;2434;48.486;7.964;2023-02-28T00:48:38;4.13;;;3.50;;
4839;SDS011;2434;48.486;7.964;2023-02-28T00:51:07;7.37;;;3.50;;
4839;SDS011;2434;48.486;7.964;2023-02-28T00:53:35;6.63;;;3.43;;
4839;SDS011;2434;48.486;7.964;2023-02-28T00:56:04;5.27;;;3.57;;
4839;SDS011;2434;48.486;7.964;2023-02-28T00:58:32;4.87;;;3.33;;
4839;SDS011;2434;48.486;7.964;2023-02-28T01:01:02;5.53;;;3.43;;
4839;SDS011;2434;48.486;7.964;2023-02-28T01:03:30;5.37;;;3.40;;
4839;SDS011;2434;48.486;7.964;2023-02-28T01:05:58;5.43;;;4.00;;
4839;SDS011;2434;48.486;7.964;2023-02-28T01:08:27;5.83;;;3.53;;
4839;SDS011;2434;48.486;7.964;2023-02-28T01:10:55;4.20;;;3.40;;
4839;SDS011;2434;48.486;7.964;2023-02-28T01:13:24;5.97;;;3.10;;
4839;SDS011;2434;48.486;7.964;2023-02-28T01:15:54;5.90;;;3.60;;
4839;SDS011;2434;48.486;7.964;2023-02-28T01:18:25;5.20;;;2.87;;
4839;SDS011;2434;48.486;7.964;2023-02-28T01:20:53;3.83;;;2.93;;
4839;SDS011;2434;48.486;7.964;2023-02-28T01:23:21;4.37;;;3.20;;
4839;SDS011;2434;48.486;7.964;2023-02-28T01:25:51;5.20;;;3.40;;
4839;SDS011;2434;48.486;7.964;2023-02-28T01:28:19;3.97;;;3.57;;
4839;SDS011;2434;48.486;7.964;2023-02-28T01:30:49;3.93;;;3.53;;
4839;SDS011;2434;48.486;7.964;2023-02-28T01:33:18;6.93;;;3.97;;
4839;SDS011;2434;48.486;7.964;2023-02-28T01:35:47;4.70;;;3.50;;
4839;SDS011;2434;48.486;7.964;2023-02-28T01:38:16;4.97;;;3.30;;
4839;SDS011;2434;48.486;7.964;2023-02-28T01:40:49;6.70;;;3.73;;
4839;SDS011;2434;48.486;7.964;2023-02-28T01:43:20;5.00;;;3.23;;
4839;SDS011;2434;48.486;7.964;2023-02-28T01:45:51;4.60;;;3.27;;
4839;SDS011;2434;48.486;7.964;2023-02-28T01:48:21;5.80;;;3.90;;
4839;SDS011;2434;48.486;7.964;2023-02-28T01:50:55;8.23;;;3.53;;
4839;SDS011;2434;48.486;7.964;2023-02-28T01:53:29;3.40;;;3.10;;
4839;SDS011;2434;48.486;7.964;2023-02-28T01:56:01;6.80;;;3.63;;
4839;SDS011;2434;48.486;7.964;2023-02-28T01:58:32;5.23;;;3.50;;
4839;SDS011;2434;48.486;7.964;2023-02-28T02:01:01;4.90;;;2.97;;
4839;SDS011;2434;48.486;7.964;2023-02-28T02:03:32;5.73;;;3.70;;
4839;SDS011;2434;48.486;7.964;2023-02-28T02:06:04;3.37;;;2.73;;
4839;SDS011;2434;48.486;7.964;2023-02-28T02:08:33;7.83;;;3.33;;
4839;SDS011;2434;48.486;7.964;2023-02-28T02:11:02;8.63;;;3.10;;
4839;SDS011;2434;48.486;7.964;2023-02-28T02:13:38;3.93;;;3.10;;
4839;SDS011;2434;48.486;7.964;2023-02-28T02:16:23;5.40;;;3.50;;
4839;SDS011;2434;48.486;7.964;2023-02-28T02:19:07;5.97;;;3.03;;
4839;SDS011;2434;48.486;7.964;2023-02-28T02:21:53;4.20;;;2.87;;
4839;SDS011;2434;48.486;7.964;2023-02-28T02:24:47;5.33;;;3.50;;
4839;SDS011;2434;48.486;7.964;2023-02-28T02:27:46;4.87;;;3.30;;
4839;SDS011;2434;48.486;7.964;2023-02-28T02:30:32;6.27;;;3.77;;
4839;SDS011;2434;48.486;7.964;2023-02-28T02:36:21;4.40;;;3.57;;
4839;SDS011;2434;48.486;7.964;2023-02-28T02:38:53;6.20;;;4.00;;
4839;SDS011;2434;48.486;7.964;2023-02-28T02:41:28;6.27;;;4.03;;
4839;SDS011;2434;48.486;7.964;2023-02-28T02:44:05;4.60;;;3.70;;
4839;SDS011;2434;48.486;7.964;2023-02-28T02:46:39;6.20;;;3.73;;
4839;SDS011;2434;48.486;7.964;2023-02-28T02:49:11;4.43;;;3.70;;
4839;SDS011;2434;48.486;7.964;2023-02-28T02:51:45;4.53;;;3.80;;
4839;SDS011;2434;48.486;7.964;2023-02-28T02:54:16;6.13;;;3.67;;
4839;SDS011;2434;48.486;7.964;2023-02-28T02:56:48;7.50;;;4.57;;
4839;SDS011;2434;48.486;7.964;2023-02-28T02:59:18;6.27;;;4.10;;
4839;SDS011;2434;48.486;7.964;2023-02-28T03:01:50;5.00;;;3.90;;
4839;SDS011;2434;48.486;7.964;2023-02-28T03:04:23;6.63;;;4.20;;
4839;SDS011;2434;48.486;7.964;2023-02-28T03:06:55;8.03;;;3.80;;
4839;SDS011;2434;48.486;7.964;2023-02-28T03:09:24;5.80;;;3.93;;
4839;SDS011;2434;48.486;7.964;2023-02-28T03:11:54;6.80;;;3.93;;
4839;SDS011;2434;48.486;7.964;2023-02-28T03:14:30;6.03;;;4.37;;
4839;SDS011;2434;48.486;7.964;2023-02-28T03:17:14;5.40;;;3.90;;
4839;SDS011;2434;48.486;7.964;2023-02-28T03:20:02;6.00;;;4.10;;
4839;SDS011;2434;48.486;7.964;2023-02-28T03:22:46;5.97;;;4.33;;
4839;SDS011;2434;48.486;7.964;2023-02-28T03:25:27;6.13;;;3.77;;
4839;SDS011;2434;48.486;7.964;2023-02-28T03:28:02;4.60;;;4.10;;
4839;SDS011;2434;48.486;7.964;2023-02-28T03:30:36;12.70;;;4.67;;
4839;SDS011;2434;48.486;7.964;2023-02-28T03:33:10;7.97;;;4.80;;
4839;SDS011;2434;48.486;7.964;2023-02-28T03:35:42;7.47;;;4.77;;
4839;SDS011;2434;48.486;7.964;2023-02-28T03:38:15;7.40;;;4.50;;
4839;SDS011;2434;48.486;7.964;2023-02-28T03:40:48;7.63;;;4.10;;
4839;SDS011;2434;48.486;7.964;2023-02-28T03:43:23;8.63;;;4.97;;
4839;SDS011;2434;48.486;7.964;2023-02-28T03:45:56;10.47;;;3.43;;
4839;SDS011;2434;48.486;7.964;2023-02-28T03:48:30;6.70;;;4.30;;
4839;SDS011;2434;48.486;7.964;2023-02-28T03:51:03;5.73;;;4.93;;
4839;SDS011;2434;48.486;7.964;2023-02-28T03:53:38;5.93;;;4.40;;
4839;SDS011;2434;48.486;7.964;2023-02-28T03:56:11;7.43;;;3.70;;
4839;SDS011;2434;48.486;7.964;2023-02-28T03:58:44;7.00;;;4.60;;
4839;SDS011;2434;48.486;7.964;2023-02-28T04:01:19;5.77;;;4.60;;
4839;SDS011;2434;48.486;7.964;2023-02-28T04:03:50;5.30;;;3.83;;
4839;SDS011;2434;48.486;7.964;2023-02-28T04:06:19;8.50;;;4.53;;
4839;SDS011;2434;48.486;7.964;2023-02-28T04:08:50;7.73;;;4.17;;
4839;SDS011;2434;48.486;7.964;2023-02-28T04:11:21;5.90;;;4.50;;
4839;SDS011;2434;48.486;7.964;2023-02-28T04:13:51;5.03;;;4.20;;
4839;SDS011;2434;48.486;7.964;2023-02-28T04:16:19;8.37;;;3.90;;
4839;SDS011;2434;48.486;7.964;2023-02-28T04:19:01;7.93;;;4.50;;
4839;SDS011;2434;48.486;7.964;2023-02-28T04:21:31;8.50;;;4.60;;
4839;SDS011;2434;48.486;7.964;2023-02-28T04:24:02;6.60;;;5.00;;
4839;SDS011;2434;48.486;7.964;2023-02-28T04:26:31;5.27;;;4.20;;
4839;SDS011;2434;48.486;7.964;2023-02-28T04:29:01;6.47;;;4.63;;
4839;SDS011;2434;48.486;7.964;2023-02-28T04:31:30;11.70;;;4.63;;
4839;SDS011;2434;48.486;7.964;2023-02-28T04:33:59;5.83;;;4.33;;
4839;SDS011;2434;48.486;7.964;2023-02-28T04:36:27;5.57;;;3.90;;
4839;SDS011;2434;48.486;7.964;2023-02-28T04:38:56;7.57;;;4.70;;
4839;SDS011;2434;48.486;7.964;2023-02-28T04:41:26;4.73;;;4.10;;
4839;SDS011;2434;48.486;7.964;2023-02-28T04:43:57;7.57;;;4.57;;
4839;SDS011;2434;48.486;7.964;2023-02-28T04:46:26;7.13;;;4.40;;
4839;SDS011;2434;48.486;7.964;2023-02-28T04:48:54;5.33;;;4.30;;
4839;SDS011;2434;48.486;7.964;2023-02-28T04:51:22;5.80;;;4.37;;
4839;SDS011;2434;48.486;7.964;2023-02-28T04:53:50;6.57;;;4.87;;
4839;SDS011;2434;48.486;7.964;2023-02-28T04:56:20;9.90;;;5.33;;
4839;SDS011;2434;48.486;7.964;2023-02-28T04:58:50;6.00;;;4.83;;
4839;SDS011;2434;48.486;7.964;2023-02-28T05:01:21;6.30;;;4.67;;
4839;SDS011;2434;48.486;7.964;2023-02-28T05:03:52;7.77;;;4.93;;
4839;SDS011;2434;48.486;7.964;2023-02-28T05:06:22;6.00;;;4.50;;
4839;SDS011;2434;48.486;7.964;2023-02-28T05:08:51;4.70;;;4.13;;
4839;SDS011;2434;48.486;7.964;2023-02-28T05:11:20;6.10;;;4.57;;
4839;SDS011;2434;48.486;7.964;2023-02-28T05:13:52;7.17;;;4.40;;
4839;SDS011;2434;48.486;7.964;2023-02-28T05:16:21;6.23;;;4.60;;
4839;SDS011;2434;48.486;7.964;2023-02-28T05:18:50;7.23;;;4.87;;
4839;SDS011;2434;48.486;7.964;2023-02-28T05:21:27;7.23;;;4.90;;
4839;SDS011;2434;48.486;7.964;2023-02-28T05:24:00;5.67;;;4.93;;
4839;SDS011;2434;48.486;7.964;2023-02-28T05:26:30;4.90;;;4.10;;
4839;SDS011;2434;48.486;7.964;2023-02-28T05:29:02;6.30;;;4.60;;
4839;SDS011;2434;48.486;7.964;2023-02-28T05:31:31;6.57;;;4.77;;
4839;SDS011;2434;48.486;7.964;2023-02-28T05:33:59;8.50;;;5.17;;
4839;SDS011;2434;48.486;7.964;2023-02-28T05:36:30;6.13;;;4.70;;
4839;SDS011;2434;48.486;7.964;2023-02-28T05:38:58;7.20;;;4.93;;
4839;SDS011;2434;48.486;7.964;2023-02-28T05:41:27;6.83;;;5.03;;
4839;SDS011;2434;48.486;7.964;2023-02-28T05:43:56;8.03;;;5.23;;
4839;SDS011;2434;48.486;7.964;2023-02-28T05:46:27;6.70;;;4.90;;
4839;SDS011;2434;48.486;7.964;2023-02-28T05:48:55;14.63;;;7.70;;
4839;SDS011;2434;48.486;7.964;2023-02-28T05:51:26;10.77;;;6.20;;
4839;SDS011;2434;48.486;7.964;2023-02-28T05:53:58;6.90;;;5.27;;
4839;SDS011;2434;48.486;7.964;2023-02-28T05:56:27;8.77;;;6.53;;
4839;SDS011;2434;48.486;7.964;2023-02-28T05:58:56;8.13;;;5.77;;
4839;SDS011;2434;48.486;7.964;2023-02-28T06:01:33;7.83;;;6.70;;
4839;SDS011;2434;48.486;7.964;2023-02-28T06:04:03;7.70;;;5.90;;
4839;SDS011;2434;48.486;7.964;2023-02-28T06:06:32;9.13;;;6.70;;
4839;SDS011;2434;48.486;7.964;2023-02-28T06:09:02;7.47;;;5.87;;
4839;SDS011;2434;48.486;7.964;2023-02-28T06:11:32;8.90;;;5.87;;
4839;SDS011;2434;48.486;7.964;2023-02-28T06:14:01;10.67;;;6.00;;
4839;SDS011;2434;48.486;7.964;2023-02-28T06:16:32;7.83;;;5.97;;
4839;SDS011;2434;48.486;7.964;2023-02-28T06:19:02;7.40;;;5.60;;
4839;SDS011;2434;48.486;7.964;2023-02-28T06:21:31;9.47;;;6.10;;
4839;SDS011;2434;48.486;7.964;2023-02-28T06:23:59;7.97;;;5.83;;
4839;SDS011;2434;48.486;7.964;2023-02-28T06:26:28;9.43;;;6.63;;
4839;SDS011;2434;48.486;7.964;2023-02-28T06:28:56;7.03;;;5.90;;
4839;SDS011;2434;48.486;7.964;2023-02-28T06:31:25;9.70;;;6.33;;
4839;SDS011;2434;48.486;7.964;2023-02-28T06:33:57;6.97;;;5.50;;
4839;SDS011;2434;48.486;7.964;2023-02-28T06:36:25;8.13;;;6.40;;
4839;SDS011;2434;48.486;7.964;2023-02-28T06:38:54;7.60;;;5.80;;
4839;SDS011;2434;48.486;7.964;2023-02-28T06:41:23;7.60;;;5.80;;
4839;SDS011;2434;48.486;7.964;2023-02-28T06:43:53;7.53;;;5.70;;
4839;SDS011;2434;48.486;7.964;2023-02-28T06:46:21;6.70;;;5.90;;
4839;SDS011;2434;48.486;7.964;2023-02-28T06:48:50;8.73;;;6.00;;
4839;SDS011;2434;48.486;7.964;2023-02-28T06:51:19;11.83;;;6.80;;
4839;SDS011;2434;48.486;7.964;2023-02-28T06:53:50;8.27;;;6.57;;
4839;SDS011;2434;48.486;7.964;2023-02-28T06:56:19;12.90;;;5.63;;
4839;SDS011;2434;48.486;7.964;2023-02-28T06:58:48;6.67;;;5.60;;
4839;SDS011;2434;48.486;7.964;2023-02-28T07:01:19;7.23;;;6.03;;
4839;SDS011;2434;48.486;7.964;2023-02-28T07:03:49;7.90;;;6.33;;
4839;SDS011;2434;48.486;7.964;2023-02-28T07:06:20;7.50;;;6.60;;
4839;SDS011;2434;48.486;7.964;2023-02-28T07:08:49;8.33;;;6.30;;
4839;SDS011;2434;48.486;7.964;2023-02-28T07:11:19;11.83;;;7.20;;
4839;SDS011;2434;48.486;7.964;2023-02-28T07:13:49;8.70;;;6.60;;
4839;SDS011;2434;48.486;7.964;2023-02-28T07:16:17;9.73;;;7.40;;
4839;SDS011;2434;48.486;7.964;2023-02-28T07:18:46;10.77;;;7.20;;
4839;SDS011;2434;48.486;7.964;2023-02-28T07:21:14;10.27;;;7.20;;
4839;SDS011;2434;48.486;7.964;2023-02-28T07:23:44;19.30;;;9.50;;
4839;SDS011;2434;48.486;7.964;2023-02-28T07:26:13;8.67;;;7.20;;
4839;SDS011;2434;48.486;7.964;2023-02-28T07:28:44;8.03;;;5.93;;
4839;SDS011;2434;48.486;7.964;2023-02-28T07:31:14;8.20;;;6.57;;
4839;SDS011;2434;48.486;7.964;2023-02-28T07:33:43;10.07;;;7.10;;
4839;SDS011;2434;48.486;7.964;2023-02-28T07:36:12;14.63;;;6.70;;
4839;SDS011;2434;48.486;7.964;2023-02-28T07:38:47;9.03;;;6.73;;
4839;SDS011;2434;48.486;7.964;2023-02-28T07:41:16;9.77;;;6.87;;
4839;SDS011;2434;48.486;7.964;2023-02-28T07:43:45;10.33;;;6.70;;
4839;SDS011;2434;48.486;7.964;2023-02-28T07:46:15;9.00;;;6.63;;
4839;SDS011;2434;48.486;7.964;2023-02-28T07:48:44;9.73;;;6.80;;
4839;SDS011;2434;48.486;7.964;2023-02-28T07:51:13;9.80;;;7.10;;
4839;SDS011;2434;48.486;7.964;2023-02-28T07:53:41;11.40;;;7.27;;
4839;SDS011;2434;48.486;7.964;2023-02-28T07:56:11;10.13;;;7.20;;
4839;SDS011;2434;48.486;7.964;2023-02-28T07:58:39;10.23;;;7.53;;
4839;SDS011;2434;48.486;7.964;2023-02-28T08:01:08;13.33;;;8.93;;
4839;SDS011;2434;48.486;7.964;2023-02-28T08:03:37;9.97;;;7.63;;
4839;SDS011;2434;48.486;7.964;2023-02-28T08:06:06;11.57;;;8.23;;
4839;SDS011;2434;48.486;7.964;2023-02-28T08:08:36;10.00;;;7.47;;
4839;SDS011;2434;48.486;7.964;2023-02-28T08:11:05;15.20;;;7.90;;
4839;SDS011;2434;48.486;7.964;2023-02-28T08:13:34;12.43;;;7.90;;
4839;SDS011;2434;48.486;7.964;2023-02-28T08:16:02;12.07;;;8.27;;
4839;SDS011;2434;48.486;7.964;2023-02-28T08:18:32;17.00;;;7.87;;
4839;SDS011;2434;48.486;7.964;2023-02-28T08:21:05;14.70;;;9.30;;
4839;SDS011;2434;48.486;7.964;2023-02-28T08:23:33;10.60;;;6.83;;
4839;SDS011;2434;48.486;7.964;2023-02-28T08:26:02;9.53;;;7.20;;
4839;SDS011;2434;48.486;7.964;2023-02-28T08:28:30;13.40;;;8.03;;
4839;SDS011;2434;48.486;7.964;2023-02-28T08:31:00;11.67;;;7.80;;
4839;SDS011;2434;48.486;7.964;2023-02-28T08:33:33;12.00;;;7.83;;
4839;SDS011;2434;48.486;7.964;2023-02-28T08:36:02;11.87;;;8.57;;
4839;SDS011;2434;48.486;7.964;2023-02-28T08:38:31;11.30;;;8.60;;
4839;SDS011;2434;48.486;7.964;2023-02-28T08:40:59;11.90;;;7.80;;
4839;SDS011;2434;48.486;7.964;2023-02-28T08:43:28;11.70;;;8.27;;
4839;SDS011;2434;48.486;7.964;2023-02-28T08:45:57;10.27;;;8.03;;
4839;SDS011;2434;48.486;7.964;2023-02-28T08:48:27;11.57;;;8.40;;
4839;SDS011;2434;48.486;7.964;2023-02-28T08:50:57;11.80;;;8.93;;
4839;SDS011;2434;48.486;7.964;2023-02-28T08:53:33;12.07;;;8.40;;
4839;SDS011;2434;48.486;7.964;2023-02-28T08:56:02;11.87;;;7.67;;
4839;SDS011;2434;48.486;7.964;2023-02-28T08:58:32;15.23;;;7.20;;
4839;SDS011;2434;48.486;7.964;2023-02-28T09:01:06;11.60;;;7.80;;
4839;SDS011;2434;48.486;7.964;2023-02-28T09:03:38;10.70;;;7.60;;
4839;SDS011;2434;48.486;7.964;2023-02-28T09:06:08;9.60;;;7.30;;
4839;SDS011;2434;48.486;7.964;2023-02-28T09:08:38;10.80;;;7.73;;
4839;SDS011;2434;48.486;7.964;2023-02-28T09:11:07;12.37;;;8.90;;
4839;SDS011;2434;48.486;7.964;2023-02-28T09:13:37;11.70;;;8.60;;
4839;SDS011;2434;48.486;7.964;2023-02-28T09:16:06;14.37;;;10.10;;
4839;SDS011;2434;48.486;7.964;2023-02-28T09:18:36;12.73;;;8.70;;
4839;SDS011;2434;48.486;7.964;2023-02-28T09:21:06;10.33;;;7.73;;
4839;SDS011;2434;48.486;7.964;2023-02-28T09:23:36;11.50;;;8.37;;
4839;SDS011;2434;48.486;7.964;2023-02-28T09:26:05;14.80;;;9.13;;
4839;SDS011;2434;48.486;7.964;2023-02-28T09:28:34;11.30;;;8.43;;
4839;SDS011;2434;48.486;7.964;2023-02-28T09:31:02;16.60;;;8.17;;
4839;SDS011;2434;48.486;7.964;2023-02-28T09:33:31;14.37;;;9.17;;
4839;SDS011;2434;48.486;7.964;2023-02-28T09:36:00;10.13;;;7.50;;
4839;SDS011;2434;48.486;7.964;2023-02-28T09:38:32;12.50;;;8.77;;
4839;SDS011;2434;48.486;7.964;2023-02-28T09:41:01;11.70;;;8.10;;
4839;SDS011;2434;48.486;7.964;2023-02-28T09:43:33;16.80;;;8.93;;
4839;SDS011;2434;48.486;7.964;2023-02-28T09:46:06;13.47;;;8.13;;
4839;SDS011;2434;48.486;7.964;2023-02-28T09:48:42;11.13;;;8.73;;
4839;SDS011;2434;48.486;7.964;2023-02-28T09:51:16;13.97;;;7.93;;
4839;SDS011;2434;48.486;7.964;2023-02-28T09:53:59;12.70;;;8.40;;
4839;SDS011;2434;48.486;7.964;2023-02-28T09:56:30;14.03;;;8.60;;
4839;SDS011;2434;48.486;7.964;2023-02-28T09:59:04;12.93;;;8.90;;
4839;SDS011;2434;48.486;7.964;2023-02-28T10:01:43;11.10;;;7.50;;
4839;SDS011;2434;48.486;7.964;2023-02-28T10:04:25;11.27;;;8.37;;
4839;SDS011;2434;48.486;7.964;2023-02-28T10:07:05;17.43;;;8.50;;
4839;SDS011;2434;48.486;7.964;2023-02-28T10:09:49;12.80;;;9.20;;
4839;SDS011;2434;48.486;7.964;2023-02-28T10:12:22;16.23;;;8.20;;
4839;SDS011;2434;48.486;7.964;2023-02-28T10:14:51;14.00;;;9.40;;
4839;SDS011;2434;48.486;7.964;2023-02-28T10:17:23;12.50;;;9.20;;
4839;SDS011;2434;48.486;7.964;2023-02-28T10:19:58;10.13;;;8.33;;
4839;SDS011;2434;48.486;7.964;2023-02-28T10:22:34;19.50;;;11.07;;
4839;SDS011;2434;48.486;7.964;2023-02-28T10:25:16;15.93;;;10.47;;
4839;SDS011;2434;48.486;7.964;2023-02-28T10:27:46;18.80;;;9.83;;
4839;SDS011;2434;48.486;7.964;2023-02-28T10:30:14;14.97;;;10.03;;
4839;SDS011;2434;48.486;7.964;2023-02-28T10:32:45;14.80;;;10.63;;
4839;SDS011;2434;48.486;7.964;2023-02-28T10:35:20;12.93;;;8.83;;
4839;SDS011;2434;48.486;7.964;2023-02-28T10:37:50;11.63;;;8.83;;
4839;SDS011;2434;48.486;7.964;2023-02-28T10:40:27;13.47;;;9.53;;
4839;SDS011;2434;48.486;7.964;2023-02-28T10:43:00;16.57;;;10.67;;
4839;SDS011;2434;48.486;7.964;2023-02-28T10:45:30;14.20;;;9.27;;
4839;SDS011;2434;48.486;7.964;2023-02-28T10:48:01;19.23;;;10.73;;
4839;SDS011;2434;48.486;7.964;2023-02-28T10:50:35;16.53;;;10.43;;
4839;SDS011;2434;48.486;7.964;2023-02-28T10:53:17;13.23;;;9.40;;
4839;SDS011;2434;48.486;7.964;2023-02-28T10:55:57;15.93;;;10.53;;
4839;SDS011;2434;48.486;7.964;2023-02-28T10:58:29;11.70;;;8.33;;
4839;SDS011;2434;48.486;7.964;2023-02-28T11:00:59;17.50;;;9.60;;
4839;SDS011;2434;48.486;7.964;2023-02-28T11:03:32;11.13;;;8.83;;
4839;SDS011;2434;48.486;7.964;2023-02-28T11:06:05;13.63;;;9.33;;
4839;SDS011;2434;48.486;7.964;2023-02-28T11:08:42;17.03;;;10.83;;
4839;SDS011;2434;48.486;7.964;2023-02-28T11:11:14;14.10;;;10.30;;
4839;SDS011;2434;48.486;7.964;2023-02-28T11:13:44;15.50;;;9.97;;
4839;SDS011;2434;48.486;7.964;2023-02-28T11:16:14;16.77;;;10.40;;
4839;SDS011;2434;48.486;7.964;2023-02-28T11:18:44;15.87;;;9.90;;
4839;SDS011;2434;48.486;7.964;2023-02-28T11:21:18;13.13;;;9.43;;
4839;SDS011;2434;48.486;7.964;2023-02-28T11:23:51;14.53;;;9.97;;
4839;SDS011;2434;48.486;7.964;2023-02-28T11:26:37;14.47;;;9.70;;
4839;SDS011;2434;48.486;7.964;2023-02-28T11:29:12;17.40;;;10.00;;
4839;SDS011;2434;48.486;7.964;2023-02-28T11:32:03;16.93;;;10.00;;
4839;SDS011;2434;48.486;7.964;2023-02-28T11:34:35;14.47;;;11.23;;
4839;SDS011;2434;48.486;7.964;2023-02-28T11:37:05;15.47;;;11.00;;
4839;SDS011;2434;48.486;7.964;2023-02-28T11:39:38;16.93;;;10.97;;
4839;SDS011;2434;48.486;7.964;2023-02-28T11:42:14;16.63;;;10.17;;
4839;SDS011;2434;48.486;7.964;2023-02-28T11:45:08;15.20;;;10.30;;
4839;SDS011;2434;48.486;7.964;2023-02-28T11:47:47;15.60;;;9.80;;
4839;SDS011;2434;48.486;7.964;2023-02-28T11:50:22;12.90;;;9.87;;
4839;SDS011;2434;48.486;7.964;2023-02-28T11:53:10;17.67;;;10.20;;
4839;SDS011;2434;48.486;7.964;2023-02-28T11:55:48;15.77;;;10.03;;
4839;SDS011;2434;48.486;7.964;2023-02-28T11:58:36;13.93;;;10.10;;
4839;SDS011;2434;48.486;7.964;2023-02-28T12:01:19;12.13;;;9.90;;
4839;SDS011;2434;48.486;7.964;2023-02-28T12:04:23;16.27;;;11.23;;
4839;SDS011;2434;48.486;7.964;2023-02-28T12:06:57;16.70;;;10.23;;
4839;SDS011;2434;48.486;7.964;2023-02-28T12:09:34;15.80;;;9.60;;
4839;SDS011;2434;48.486;7.964;2023-02-28T12:12:15;17.50;;;10.23;;
4839;SDS011;2434;48.486;7.964;2023-02-28T12:17:55;14.73;;;10.60;;
4839;SDS011;2434;48.486;7.964;2023-02-28T12:20:38;15.50;;;11.20;;
4839;SDS011;2434;48.486;7.964;2023-02-28T12:23:20;17.30;;;9.67;;
4839;SDS011;2434;48.486;7.964;2023-02-28T12:26:00;15.07;;;10.00;;
4839;SDS011;2434;48.486;7.964;2023-02-28T12:28:37;15.30;;;11.13;;
4839;SDS011;2434;48.486;7.964;2023-02-28T12:31:11;11.90;;;9.40;;
4839;SDS011;2434;48.486;7.964;2023-02-28T12:33:45;14.40;;;9.67;;
4839;SDS011;2434;48.486;7.964;2023-02-28T12:36:19;20.50;;;10.40;;
4839;SDS011;2434;48.486;7.964;2023-02-28T12:38:51;12.83;;;10.00;;
4839;SDS011;2434;48.486;7.964;2023-02-28T12:41:26;15.60;;;10.70;;
4839;SDS011;2434;48.486;7.964;2023-02-28T12:44:01;14.63;;;9.50;;
4839;SDS011;2434;48.486;7.964;2023-02-28T12:46:34;13.20;;;9.47;;
4839;SDS011;2434;48.486;7.964;2023-02-28T12:49:06;15.73;;;10.10;;
4839;SDS011;2434;48.486;7.964;2023-02-28T12:51:38;12.90;;;9.63;;
4839;SDS011;2434;48.486;7.964;2023-02-28T12:54:10;15.37;;;10.03;;
4839;SDS011;2434;48.486;7.964;2023-02-28T12:56:48;13.90;;;10.10;;
4839;SDS011;2434;48.486;7.964;2023-02-28T12:59:23;13.63;;;10.40;;
4839;SDS011;2434;48.486;7.964;2023-02-28T13:05:24;16.70;;;10.13;;
4839;SDS011;2434;48.486;7.964;2023-02-28T13:08:07;15.93;;;11.67;;
4839;SDS011;2434;48.486;7.964;2023-02-28T13:10:57;17.60;;;11.30;;
4839;SDS011;2434;48.486;7.964;2023-02-28T13:13:29;13.90;;;10.47;;
4839;SDS011;2434;48.486;7.964;2023-02-28T13:16:03;14.53;;;10.60;;
4839;SDS011;2434;48.486;7.964;2023-02-28T13:18:34;12.50;;;9.40;;
4839;SDS011;2434;48.486;7.964;2023-02-28T13:21:08;11.30;;;9.00;;
4839;SDS011;2434;48.486;7.964;2023-02-28T13:23:56;13.53;;;8.67;;
4839;SDS011;2434;48.486;7.964;2023-02-28T13:29:36;13.67;;;9.57;;
4839;SDS011;2434;48.486;7.964;2023-02-28T13:32:19;13.20;;;9.70;;
4839;SDS011;2434;48.486;7.964;2023-02-28T13:35:12;14.40;;;10.80;;
4839;SDS011;2434;48.486;7.964;2023-02-28T13:40:51;12.83;;;9.63;;
4839;SDS011;2434;48.486;7.964;2023-02-28T13:43:20;15.90;;;10.40;;
4839;SDS011;2434;48.486;7.964;2023-02-28T13:46:11;12.07;;;9.17;;
4839;SDS011;2434;48.486;7.964;2023-02-28T13:48:40;12.80;;;9.30;;
4839;SDS011;2434;48.486;7.964;2023-02-28T13:57:22;19.57;;;11.07;;
4839;SDS011;2434;48.486;7.964;2023-02-28T14:00:02;15.80;;;10.43;;
4839;SDS011;2434;48.486;7.964;2023-02-28T14:02:50;15.63;;;10.63;;
4839;SDS011;2434;48.486;7.964;2023-02-28T14:05:34;16.17;;;11.37;;
4839;SDS011;2434;48.486;7.964;2023-02-28T14:08:04;13.83;;;10.03;;
4839;SDS011;2434;48.486;7.964;2023-02-28T14:10:43;15.30;;;10.33;;
4839;SDS011;2434;48.486;7.964;2023-02-28T14:16:11;16.90;;;11.10;;
4839;SDS011;2434;48.486;7.964;2023-02-28T14:18:42;14.37;;;9.70;;
4839;SDS011;2434;48.486;7.964;2023-02-28T14:21:20;14.40;;;10.70;;
4839;SDS011;2434;48.486;7.964;2023-02-28T14:24:03;14.50;;;11.00;;
4839;SDS011;2434;48.486;7.964;2023-02-28T14:33:14;13.60;;;9.73;;
4839;SDS011;2434;48.486;7.964;2023-02-28T14:38:42;14.57;;;10.23;;
4839;SDS011;2434;48.486;7.964;2023-02-28T14:41:16;13.70;;;9.13;;
4839;SDS011;2434;48.486;7.964;2023-02-28T14:43:48;18.37;;;10.37;;
4839;SDS011;2434;48.486;7.964;2023-02-28T14:46:19;13.03;;;9.70;;
4839;SDS011;2434;48.486;7.964;2023-02-28T14:48:48;13.40;;;9.80;;
4839;SDS011;2434;48.486;7.964;2023-02-28T14:51:18;14.93;;;9.17;;
4839;SDS011;2434;48.486;7.964;2023-02-28T14:53:50;14.90;;;9.70;;
4839;SDS011;2434;48.486;7.964;2023-02-28T14:56:23;13.80;;;10.07;;
4839;SDS011;2434;48.486;7.964;2023-02-28T14:58:55;13.57;;;10.57;;
4839;SDS011;2434;48.486;7.964;2023-02-28T15:01:25;13.80;;;10.30;;
4839;SDS011;2434;48.486;7.964;2023-02-28T15:03:57;15.40;;;9.43;;
4839;SDS011;2434;48.486;7.964;2023-02-28T15:06:31;13.00;;;9.80;;
4839;SDS011;2434;48.486;7.964;2023-02-28T15:09:07;14.83;;;10.23;;
4839;SDS011;2434;48.486;7.964;2023-02-28T15:11:44;16.30;;;10.27;;
4839;SDS011;2434;48.486;7.964;2023-02-28T15:14:15;18.70;;;8.93;;
4839;SDS011;2434;48.486;7.964;2023-02-28T15:16:48;14.20;;;10.63;;
4839;SDS011;2434;48.486;7.964;2023-02-28T15:19:21;17.27;;;10.60;;
4839;SDS011;2434;48.486;7.964;2023-02-28T15:21:55;14.43;;;10.37;;
4839;SDS011;2434;48.486;7.964;2023-02-28T15:24:30;15.80;;;10.57;;
4839;SDS011;2434;48.486;7.964;2023-02-28T15:27:03;12.90;;;9.90;;
4839;SDS011;2434;48.486;7.964;2023-02-28T15:29:36;12.43;;;9.40;;
4839;SDS011;2434;48.486;7.964;2023-02-28T15:32:23;17.93;;;9.70;;
4839;SDS011;2434;48.486;7.964;2023-02-28T15:34:55;15.50;;;9.77;;
4839;SDS011;2434;48.486;7.964;2023-02-28T15:37:38;14.20;;;9.27;;
4839;SDS011;2434;48.486;7.964;2023-02-28T15:40:12;12.70;;;9.00;;
4839;SDS011;2434;48.486;7.964;2023-02-28T15:42:57;16.83;;;11.30;;
4839;SDS011;2434;48.486;7.964;2023-02-28T15:45:27;12.67;;;9.97;;
4839;SDS011;2434;48.486;7.964;2023-02-28T15:48:13;16.97;;;10.07;;
4839;SDS011;2434;48.486;7.964;2023-02-28T15:50:47;12.80;;;9.43;;
4839;SDS011;2434;48.486;7.964;2023-02-28T15:53:18;14.80;;;9.50;;
4839;SDS011;2434;48.486;7.964;2023-02-28T15:55:57;13.63;;;9.63;;
4839;SDS011;2434;48.486;7.964;2023-02-28T15:58:29;15.60;;;10.63;;
4839;SDS011;2434;48.486;7.964;2023-02-28T16:01:04;14.10;;;10.47;;
4839;SDS011;2434;48.486;7.964;2023-02-28T16:03:47;16.07;;;11.30;;
4839;SDS011;2434;48.486;7.964;2023-02-28T16:06:30;17.80;;;10.80;;
4839;SDS011;2434;48.486;7.964;2023-02-28T16:09:02;16.50;;;11.27;;
4839;SDS011;2434;48.486;7.964;2023-02-28T16:11:34;12.43;;;10.00;;
4839;SDS011;2434;48.486;7.964;2023-02-28T16:14:11;14.47;;;11.30;;